sensor_id;sensor_type;location;lat;lon;timestamp;pressure;altitude;pressure_sealevel;temperature;humidity
77062;BME280;65989;51.686;5.138;2023-02-28T00:01:34;103258.59;;;-1.44;78.71
77062;BME280;65989;51.686;5.138;2023-02-28T00:03:59;103256.09;;;-1.45;78.94
77062;BME280;65989;51.686;5.138;2023-02-28T00:06:25;103257.16;;;-1.48;79.04
77062;BME280;65989;51.686;5.138;2023-02-28T00:08:50;103256.44;;;-1.50;79.19
77062;BME280;65989;51.686;5.138;2023-02-28T00:11:16;103257.97;;;-1.47;79.04
77062;BME280;65989;51.686;5.138;2023-02-28T00:13:44;103259.88;;;-1.49;79.48
77062;BME280;65989;51.686;5.138;2023-02-28T00:16:20;103255.63;;;-1.51;79.34
77062;BME280;65989;51.686;5.138;2023-02-28T00:18:46;103256.66;;;-1.53;79.47
77062;BME280;65989;51.686;5.138;2023-02-28T00:21:16;103257.59;;;-1.54;79.56
77062;BME280;65989;51.686;5.138;2023-02-28T00:23:41;103259.69;;;-1.59;79.53
77062;BME280;65989;51.686;5.138;2023-02-28T00:26:07;103260.75;;;-1.62;79.73
77062;BME280;65989;51.686;5.138;2023-02-28T00:28:32;103263.72;;;-1.67;79.75
77062;BME280;65989;51.686;5.138;2023-02-28T00:30:58;103253.63;;;-1.71;79.62
77062;BME280;65989;51.686;5.138;2023-02-28T00:33:25;103258.22;;;-1.75;79.48
77062;BME280;65989;51.686;5.138;2023-02-28T00:35:50;103254.19;;;-1.79;79.67
77062;BME280;65989;51.686;5.138;2023-02-28T00:38:16;103254.69;;;-1.74;79.48
77062;BME280;65989;51.686;5.138;2023-02-28T00:40:41;103264.66;;;-1.68;79.76
77062;BME280;65989;51.686;5.138;2023-02-28T00:43:07;103256.16;;;-1.58;79.73
77062;BME280;65989;51.686;5.138;2023-02-28T00:45:32;103252.75;;;-1.47;79.35
77062;BME280;65989;51.686;5.138;2023-02-28T00:47:58;103258.00;;;-1.36;79.96
77062;BME280;65989;51.686;5.138;2023-02-28T00:50:23;103259.00;;;-1.26;79.84
77062;BME280;65989;51.686;5.138;2023-02-28T00:52:48;103260.09;;;-1.17;79.61
77062;BME280;65989;51.686;5.138;2023-02-28T00:55:14;103250.88;;;-1.10;79.45
77062;BME280;65989;51.686;5.138;2023-02-28T00:57:40;103245.22;;;-1.03;79.36
77062;BME280;65989;51.686;5.138;2023-02-28T01:00:07;103251.59;;;-0.96;79.52
77062;BME280;65989;51.686;5.138;2023-02-28T01:02:32;103259.88;;;-0.91;79.33
77062;BME280;65989;51.686;5.138;2023-02-28T01:04:58;103260.28;;;-0.84;79.33
77062;BME280;65989;51.686;5.138;2023-02-28T01:07:23;103260.94;;;-0.82;79.26
77062;BME280;65989;51.686;5.138;2023-02-28T01:09:49;103256.22;;;-0.77;79.54
77062;BME280;65989;51.686;5.138;2023-02-28T01:12:14;103255.19;;;-0.74;79.63
77062;BME280;65989;51.686;5.138;2023-02-28T01:14:40;103251.63;;;-0.73;79.38
77062;BME280;65989;51.686;5.138;2023-02-28T01:17:05;103260.63;;;-0.66;79.38
77062;BME280;65989;51.686;5.138;2023-02-28T01:19:31;103263.81;;;-0.63;79.27
77062;BME280;65989;51.686;5.138;2023-02-28T01:21:56;103254.13;;;-0.61;79.61
77062;BME280;65989;51.686;5.138;2023-02-28T01:24:22;103254.84;;;-0.58;79.54
77062;BME280;65989;51.686;5.138;2023-02-28T01:26:47;103258.97;;;-0.56;79.31
77062;BME280;65989;51.686;5.138;2023-02-28T01:29:12;103249.50;;;-0.57;79.50
77062;BME280;65989;51.686;5.138;2023-02-28T01:31:38;103247.59;;;-0.55;79.52
77062;BME280;65989;51.686;5.138;2023-02-28T01:34:03;103254.69;;;-0.57;79.36
77062;BME280;65989;51.686;5.138;2023-02-28T01:36:29;103251.03;;;-0.54;79.35
77062;BME280;65989;51.686;5.138;2023-02-28T01:38:54;103263.94;;;-0.53;79.11
77062;BME280;65989;51.686;5.138;2023-02-28T01:41:27;103259.56;;;-0.52;79.33
77062;BME280;65989;51.686;5.138;2023-02-28T01:44:53;103262.75;;;-0.49;79.08
77062;BME280;65989;51.686;5.138;2023-02-28T01:46:52;103258.25;;;-0.47;79.15
77062;BME280;65989;51.686;5.138;2023-02-28T01:49:17;103260.50;;;-0.42;79.28
77062;BME280;65989;51.686;5.138;2023-02-28T01:51:48;103262.75;;;-0.37;78.94
77062;BME280;65989;51.686;5.138;2023-02-28T01:54:27;103257.31;;;-0.34;79.35
77062;BME280;65989;51.686;5.138;2023-02-28T01:57:01;103263.09;;;-0.31;79.29
77062;BME280;65989;51.686;5.138;2023-02-28T01:59:38;103254.34;;;-0.29;79.22
77062;BME280;65989;51.686;5.138;2023-02-28T02:02:14;103255.84;;;-0.27;79.42
77062;BME280;65989;51.686;5.138;2023-02-28T02:04:48;103256.22;;;-0.20;79.04
77062;BME280;65989;51.686;5.138;2023-02-28T02:07:15;103244.72;;;-0.18;79.02
77062;BME280;65989;51.686;5.138;2023-02-28T02:09:41;103252.28;;;-0.14;79.21
77062;BME280;65989;51.686;5.138;2023-02-28T02:12:28;103239.25;;;-0.14;79.06
77062;BME280;65989;51.686;5.138;2023-02-28T02:15:07;103246.25;;;-0.15;79.13
77062;BME280;65989;51.686;5.138;2023-02-28T02:17:39;103241.75;;;-0.13;79.16
77062;BME280;65989;51.686;5.138;2023-02-28T02:25:53;103233.09;;;-0.02;79.26
77062;BME280;65989;51.686;5.138;2023-02-28T02:29:00;103233.66;;;0.02;79.05
77062;BME280;65989;51.686;5.138;2023-02-28T02:37:24;103237.44;;;0.09;79.08
77062;BME280;65989;51.686;5.138;2023-02-28T02:40:10;103237.44;;;0.09;78.94
77062;BME280;65989;51.686;5.138;2023-02-28T02:42:44;103235.78;;;0.08;79.05
77062;BME280;65989;51.686;5.138;2023-02-28T02:45:39;103232.09;;;0.10;79.00
77062;BME280;65989;51.686;5.138;2023-02-28T02:48:10;103231.28;;;0.10;79.05
77062;BME280;65989;51.686;5.138;2023-02-28T02:50:41;103235.53;;;0.11;79.18
77062;BME280;65989;51.686;5.138;2023-02-28T02:53:10;103236.34;;;0.11;79.12
77062;BME280;65989;51.686;5.138;2023-02-28T02:55:40;103232.78;;;0.12;79.20
77062;BME280;65989;51.686;5.138;2023-02-28T02:58:14;103232.53;;;0.16;79.26
77062;BME280;65989;51.686;5.138;2023-02-28T03:00:43;103226.53;;;0.15;79.36
77062;BME280;65989;51.686;5.138;2023-02-28T03:03:12;103238.31;;;0.19;79.18
77062;BME280;65989;51.686;5.138;2023-02-28T03:06:04;103237.97;;;0.24;78.99
77062;BME280;65989;51.686;5.138;2023-02-28T03:08:34;103240.59;;;0.24;79.08
77062;BME280;65989;51.686;5.138;2023-02-28T03:11:03;103243.19;;;0.24;79.49
77062;BME280;65989;51.686;5.138;2023-02-28T03:19:34;103225.00;;;0.34;79.29
77062;BME280;65989;51.686;5.138;2023-02-28T03:25:16;103230.78;;;0.37;79.07
77062;BME280;65989;51.686;5.138;2023-02-28T03:30:38;103228.06;;;0.39;78.86
77062;BME280;65989;51.686;5.138;2023-02-28T03:33:14;103222.00;;;0.38;78.80
77062;BME280;65989;51.686;5.138;2023-02-28T03:36:11;103221.91;;;0.40;79.06
77062;BME280;65989;51.686;5.138;2023-02-28T03:39:16;103223.91;;;0.36;78.88
77062;BME280;65989;51.686;5.138;2023-02-28T03:41:38;103229.03;;;0.38;79.27
77062;BME280;65989;51.686;5.138;2023-02-28T03:44:12;103223.66;;;0.39;78.92
77062;BME280;65989;51.686;5.138;2023-02-28T03:46:46;103237.41;;;0.41;79.02
77062;BME280;65989;51.686;5.138;2023-02-28T03:49:18;103241.94;;;0.39;79.02
77062;BME280;65989;51.686;5.138;2023-02-28T03:51:46;103237.81;;;0.37;79.06
77062;BME280;65989;51.686;5.138;2023-02-28T03:54:28;103242.16;;;0.36;79.11
77062;BME280;65989;51.686;5.138;2023-02-28T03:57:20;103242.63;;;0.41;79.06
77062;BME280;65989;51.686;5.138;2023-02-28T03:59:54;103239.91;;;0.43;79.05
77062;BME280;65989;51.686;5.138;2023-02-28T04:02:21;103244.28;;;0.42;79.54
77062;BME280;65989;51.686;5.138;2023-02-28T04:04:46;103243.22;;;0.45;79.32
77062;BME280;65989;51.686;5.138;2023-02-28T04:07:13;103239.91;;;0.43;79.22
77062;BME280;65989;51.686;5.138;2023-02-28T04:09:39;103242.63;;;0.41;79.47
77062;BME280;65989;51.686;5.138;2023-02-28T04:12:05;103238.13;;;0.43;79.55
77062;BME280;65989;51.686;5.138;2023-02-28T04:14:31;103236.34;;;0.44;79.39
77062;BME280;65989;51.686;5.138;2023-02-28T04:16:56;103242.38;;;0.44;79.40
77062;BME280;65989;51.686;5.138;2023-02-28T04:19:22;103232.09;;;0.43;79.58
77062;BME280;65989;51.686;5.138;2023-02-28T04:21:50;103238.13;;;0.43;79.41
77062;BME280;65989;51.686;5.138;2023-02-28T04:24:21;103237.06;;;0.46;79.40
77062;BME280;65989;51.686;5.138;2023-02-28T04:26:49;103238.97;;;0.44;79.53
77062;BME280;65989;51.686;5.138;2023-02-28T04:29:30;103239.66;;;0.46;79.44
77062;BME280;65989;51.686;5.138;2023-02-28T04:31:57;103241.56;;;0.44;79.71
77062;BME280;65989;51.686;5.138;2023-02-28T04:34:27;103238.13;;;0.43;79.52
77062;BME280;65989;51.686;5.138;2023-02-28T04:36:54;103240.47;;;0.47;79.28
77062;BME280;65989;51.686;5.138;2023-02-28T04:39:21;103244.03;;;0.46;79.31
77062;BME280;65989;51.686;5.138;2023-02-28T04:41:46;103251.63;;;0.49;79.19
77062;BME280;65989;51.686;5.138;2023-02-28T04:44:13;103249.97;;;0.48;79.12
77062;BME280;65989;51.686;5.138;2023-02-28T04:46:38;103244.88;;;0.46;79.16
77062;BME280;65989;51.686;5.138;2023-02-28T04:49:03;103257.78;;;0.48;79.13
77062;BME280;65989;51.686;5.138;2023-02-28T04:51:29;103251.63;;;0.49;78.92
77062;BME280;65989;51.686;5.138;2023-02-28T04:53:55;103250.91;;;0.47;78.93
77062;BME280;65989;51.686;5.138;2023-02-28T04:56:20;103257.78;;;0.48;78.90
77062;BME280;65989;51.686;5.138;2023-02-28T04:58:46;103253.41;;;0.48;78.98
77062;BME280;65989;51.686;5.138;2023-02-28T05:01:29;103264.53;;;0.50;78.80
77062;BME280;65989;51.686;5.138;2023-02-28T05:03:57;103275.81;;;0.51;78.65
77062;BME280;65989;51.686;5.138;2023-02-28T05:06:25;103259.31;;;0.50;78.61
77062;BME280;65989;51.686;5.138;2023-02-28T05:08:54;103255.88;;;0.50;78.61
77062;BME280;65989;51.686;5.138;2023-02-28T05:11:21;103282.78;;;0.50;78.80
77062;BME280;65989;51.686;5.138;2023-02-28T05:13:48;103274.97;;;0.50;78.57
77062;BME280;65989;51.686;5.138;2023-02-28T05:16:14;103277.56;;;0.50;78.96
77062;BME280;65989;51.686;5.138;2023-02-28T05:18:39;103268.13;;;0.49;78.86
77062;BME280;65989;51.686;5.138;2023-02-28T05:21:05;103279.38;;;0.50;78.76
77062;BME280;65989;51.686;5.138;2023-02-28T05:23:30;103275.66;;;0.52;78.61
77062;BME280;65989;51.686;5.138;2023-02-28T05:25:56;103266.06;;;0.53;78.95
77062;BME280;65989;51.686;5.138;2023-02-28T05:28:22;103269.63;;;0.52;78.54
77062;BME280;65989;51.686;5.138;2023-02-28T05:30:47;103276.50;;;0.53;78.68
77062;BME280;65989;51.686;5.138;2023-02-28T05:33:13;103280.06;;;0.52;78.39
77062;BME280;65989;51.686;5.138;2023-02-28T05:35:40;103275.66;;;0.52;78.62
77062;BME280;65989;51.686;5.138;2023-02-28T05:38:06;103281.72;;;0.53;78.44
77062;BME280;65989;51.686;5.138;2023-02-28T05:40:32;103269.63;;;0.52;78.51
77062;BME280;65989;51.686;5.138;2023-02-28T05:42:57;103270.19;;;0.55;78.32
77062;BME280;65989;51.686;5.138;2023-02-28T05:45:22;103280.63;;;0.55;78.45
77062;BME280;65989;51.686;5.138;2023-02-28T05:47:48;103268.44;;;0.56;78.44
77062;BME280;65989;51.686;5.138;2023-02-28T05:50:13;103272.69;;;0.57;78.17
77062;BME280;65989;51.686;5.138;2023-02-28T05:52:38;103262.25;;;0.57;78.29
77062;BME280;65989;51.686;5.138;2023-02-28T05:55:04;103254.53;;;0.55;78.25
77062;BME280;65989;51.686;5.138;2023-02-28T05:57:30;103271.75;;;0.58;77.78
77062;BME280;65989;51.686;5.138;2023-02-28T05:59:55;103270.91;;;0.57;78.28
77062;BME280;65989;51.686;5.138;2023-02-28T06:02:20;103271.75;;;0.58;78.15
77062;BME280;65989;51.686;5.138;2023-02-28T06:04:46;103265.69;;;0.57;77.62
77062;BME280;65989;51.686;5.138;2023-02-28T06:07:11;103262.13;;;0.58;77.85
77062;BME280;65989;51.686;5.138;2023-02-28T06:09:37;103269.94;;;0.58;77.77
77062;BME280;65989;51.686;5.138;2023-02-28T06:12:04;103262.97;;;0.59;77.45
77062;BME280;65989;51.686;5.138;2023-02-28T06:14:31;103250.72;;;0.59;77.74
77062;BME280;65989;51.686;5.138;2023-02-28T06:17:01;103261.06;;;0.61;77.57
77062;BME280;65989;51.686;5.138;2023-02-28T06:19:26;103270.66;;;0.61;77.59
77062;BME280;65989;51.686;5.138;2023-02-28T06:21:53;103266.03;;;0.64;77.40
77062;BME280;65989;51.686;5.138;2023-02-28T06:24:23;103269.59;;;0.63;77.44
77062;BME280;65989;51.686;5.138;2023-02-28T06:26:49;103268.63;;;0.64;77.37
77062;BME280;65989;51.686;5.138;2023-02-28T06:29:15;103268.75;;;0.63;77.32
77062;BME280;65989;51.686;5.138;2023-02-28T06:31:42;103271.25;;;0.64;77.34
77062;BME280;65989;51.686;5.138;2023-02-28T06:34:09;103269.34;;;0.66;77.36
77062;BME280;65989;51.686;5.138;2023-02-28T06:36:37;103274.41;;;0.68;77.14
77062;BME280;65989;51.686;5.138;2023-02-28T06:39:02;103267.28;;;0.70;77.33
77062;BME280;65989;51.686;5.138;2023-02-28T06:41:27;103257.56;;;0.72;77.32
77062;BME280;65989;51.686;5.138;2023-02-28T06:43:53;103259.22;;;0.73;76.83
77062;BME280;65989;51.686;5.138;2023-02-28T06:46:19;103266.09;;;0.74;76.75
77062;BME280;65989;51.686;5.138;2023-02-28T06:48:45;103266.91;;;0.74;76.94
77062;BME280;65989;51.686;5.138;2023-02-28T06:51:13;103281.59;;;0.76;76.67
77062;BME280;65989;51.686;5.138;2023-02-28T06:53:40;103258.00;;;0.77;76.90
77062;BME280;65989;51.686;5.138;2023-02-28T06:56:07;103272.47;;;0.81;76.99
77062;BME280;65989;51.686;5.138;2023-02-28T06:58:33;103277.28;;;0.86;77.09
77062;BME280;65989;51.686;5.138;2023-02-28T07:00:59;103274.44;;;0.89;76.56
77062;BME280;65989;51.686;5.138;2023-02-28T07:03:24;103283.66;;;0.93;76.58
77062;BME280;65989;51.686;5.138;2023-02-28T07:05:52;103286.97;;;0.95;76.43
77062;BME280;65989;51.686;5.138;2023-02-28T07:08:17;103284.22;;;0.97;76.58
77062;BME280;65989;51.686;5.138;2023-02-28T07:10:43;103290.84;;;1.01;76.36
77062;BME280;65989;51.686;5.138;2023-02-28T07:13:09;103291.56;;;1.03;76.42
77062;BME280;65989;51.686;5.138;2023-02-28T07:15:36;103293.75;;;1.08;75.90
77062;BME280;65989;51.686;5.138;2023-02-28T07:18:02;103294.22;;;1.13;75.67
77062;BME280;65989;51.686;5.138;2023-02-28T07:20:28;103289.84;;;1.13;75.95
77062;BME280;65989;51.686;5.138;2023-02-28T07:22:54;103291.50;;;1.14;75.75
77062;BME280;65989;51.686;5.138;2023-02-28T07:25:24;103291.91;;;1.19;75.56
77062;BME280;65989;51.686;5.138;2023-02-28T07:27:50;103296.75;;;1.24;75.68
77062;BME280;65989;51.686;5.138;2023-02-28T07:30:15;103303.13;;;1.31;75.49
77062;BME280;65989;51.686;5.138;2023-02-28T07:32:41;103303.41;;;1.38;75.27
77062;BME280;65989;51.686;5.138;2023-02-28T07:35:06;103307.28;;;1.44;75.05
77062;BME280;65989;51.686;5.138;2023-02-28T07:37:32;103304.00;;;1.52;75.00
77062;BME280;65989;51.686;5.138;2023-02-28T07:40:05;103309.81;;;1.55;74.18
77062;BME280;65989;51.686;5.138;2023-02-28T07:42:32;103306.00;;;1.59;74.17
77062;BME280;65989;51.686;5.138;2023-02-28T07:44:57;103306.28;;;1.66;74.02
77062;BME280;65989;51.686;5.138;2023-02-28T07:47:24;103309.19;;;1.73;74.06
77062;BME280;65989;51.686;5.138;2023-02-28T07:49:49;103304.13;;;1.81;73.94
77062;BME280;65989;51.686;5.138;2023-02-28T07:52:14;103308.25;;;1.84;73.53
77062;BME280;65989;51.686;5.138;2023-02-28T07:54:40;103311.19;;;1.90;73.09
77062;BME280;65989;51.686;5.138;2023-02-28T07:57:05;103310.06;;;1.93;72.57
77062;BME280;65989;51.686;5.138;2023-02-28T07:59:31;103312.16;;;1.99;72.06
77062;BME280;65989;51.686;5.138;2023-02-28T08:01:57;103308.16;;;2.05;72.02
77062;BME280;65989;51.686;5.138;2023-02-28T08:04:22;103320.72;;;2.11;71.08
77062;BME280;65989;51.686;5.138;2023-02-28T08:06:48;103312.44;;;2.16;70.59
77062;BME280;65989;51.686;5.138;2023-02-28T08:09:13;103307.38;;;2.24;70.27
77062;BME280;65989;51.686;5.138;2023-02-28T08:11:39;103304.91;;;2.32;67.70
77062;BME280;65989;51.686;5.138;2023-02-28T08:14:05;103309.47;;;2.40;66.67
77062;BME280;65989;51.686;5.138;2023-02-28T08:16:30;103319.38;;;2.46;66.46
77062;BME280;65989;51.686;5.138;2023-02-28T08:18:56;103323.94;;;2.54;63.74
77062;BME280;65989;51.686;5.138;2023-02-28T08:21:21;103321.59;;;2.61;63.58
77062;BME280;65989;51.686;5.138;2023-02-28T08:23:48;103306.44;;;2.74;63.37
77062;BME280;65989;51.686;5.138;2023-02-28T08:26:14;103309.03;;;2.84;61.83
77062;BME280;65989;51.686;5.138;2023-02-28T08:28:39;103312.63;;;2.93;60.82
77062;BME280;65989;51.686;5.138;2023-02-28T08:31:09;103314.66;;;2.99;60.29
77062;BME280;65989;51.686;5.138;2023-02-28T08:33:35;103315.50;;;2.99;58.97
77062;BME280;65989;51.686;5.138;2023-02-28T08:36:01;103317.69;;;3.04;59.19
77062;BME280;65989;51.686;5.138;2023-02-28T08:38:27;103322.94;;;3.14;58.27
77062;BME280;65989;51.686;5.138;2023-02-28T08:41:00;103311.31;;;3.17;58.49
77062;BME280;65989;51.686;5.138;2023-02-28T08:43:26;103321.72;;;3.46;57.90
77062;BME280;65989;51.686;5.138;2023-02-28T08:45:52;103306.84;;;3.37;57.28
77062;BME280;65989;51.686;5.138;2023-02-28T08:48:19;103299.13;;;3.35;54.91
77062;BME280;65989;51.686;5.138;2023-02-28T08:51:01;103298.75;;;3.30;55.39
77062;BME280;65989;51.686;5.138;2023-02-28T08:53:26;103297.56;;;3.05;53.61
77062;BME280;65989;51.686;5.138;2023-02-28T08:55:57;103303.78;;;2.84;51.91
77062;BME280;65989;51.686;5.138;2023-02-28T08:58:22;103311.81;;;2.63;52.91
77062;BME280;65989;51.686;5.138;2023-02-28T09:00:47;103311.69;;;2.54;51.85
77062;BME280;65989;51.686;5.138;2023-02-28T09:03:13;103319.38;;;2.66;51.43
77062;BME280;65989;51.686;5.138;2023-02-28T09:05:38;103328.91;;;2.77;51.65
77062;BME280;65989;51.686;5.138;2023-02-28T09:08:04;103324.59;;;2.95;50.62
77062;BME280;65989;51.686;5.138;2023-02-28T09:10:29;103304.88;;;3.11;50.91
77062;BME280;65989;51.686;5.138;2023-02-28T09:12:55;103305.63;;;3.31;51.56
77062;BME280;65989;51.686;5.138;2023-02-28T09:15:20;103306.53;;;3.50;50.10
77062;BME280;65989;51.686;5.138;2023-02-28T09:17:45;103308.28;;;3.59;50.04
77062;BME280;65989;51.686;5.138;2023-02-28T09:20:11;103308.75;;;3.72;49.77
77062;BME280;65989;51.686;5.138;2023-02-28T09:22:37;103314.22;;;3.89;48.87
77062;BME280;65989;51.686;5.138;2023-02-28T09:25:02;103305.78;;;3.85;48.20
77062;BME280;65989;51.686;5.138;2023-02-28T09:27:28;103306.19;;;3.91;48.22
77062;BME280;65989;51.686;5.138;2023-02-28T09:29:53;103314.97;;;3.99;49.27
77062;BME280;65989;51.686;5.138;2023-02-28T09:32:18;103306.06;;;3.92;48.76
77062;BME280;65989;51.686;5.138;2023-02-28T09:34:44;103318.38;;;3.82;47.88
77062;BME280;65989;51.686;5.138;2023-02-28T09:37:09;103322.09;;;3.61;47.33
77062;BME280;65989;51.686;5.138;2023-02-28T09:39:35;103311.38;;;3.44;47.69
77062;BME280;65989;51.686;5.138;2023-02-28T09:42:02;103311.56;;;3.23;47.76
77062;BME280;65989;51.686;5.138;2023-02-28T09:44:32;103315.59;;;3.18;48.41
77062;BME280;65989;51.686;5.138;2023-02-28T09:49:41;103323.63;;;2.96;48.64
77062;BME280;65989;51.686;5.138;2023-02-28T09:52:15;103320.47;;;2.83;47.30
77062;BME280;65989;51.686;5.138;2023-02-28T09:54:42;103315.66;;;2.78;48.02
77062;BME280;65989;51.686;5.138;2023-02-28T10:00:41;103316.91;;;2.74;49.30
77062;BME280;65989;51.686;5.138;2023-02-28T10:06:11;103310.16;;;2.62;48.78
77062;BME280;65989;51.686;5.138;2023-02-28T10:08:31;103319.94;;;2.60;48.71
77062;BME280;65989;51.686;5.138;2023-02-28T10:11:01;103316.75;;;2.56;49.05
77062;BME280;65989;51.686;5.138;2023-02-28T10:16:46;103309.88;;;2.55;48.42
77062;BME280;65989;51.686;5.138;2023-02-28T10:19:27;103309.75;;;2.57;48.57
77062;BME280;65989;51.686;5.138;2023-02-28T10:22:01;103310.84;;;2.64;47.89
77062;BME280;65989;51.686;5.138;2023-02-28T10:27:01;103302.88;;;2.56;47.24
77062;BME280;65989;51.686;5.138;2023-02-28T10:29:30;103306.28;;;2.56;47.67
77062;BME280;65989;51.686;5.138;2023-02-28T10:32:02;103309.47;;;2.60;47.34
77062;BME280;65989;51.686;5.138;2023-02-28T10:34:28;103292.94;;;2.59;47.71
77062;BME280;65989;51.686;5.138;2023-02-28T10:36:54;103290.47;;;2.58;47.50
77062;BME280;65989;51.686;5.138;2023-02-28T10:39:40;103289.50;;;2.59;48.21
77062;BME280;65989;51.686;5.138;2023-02-28T10:42:19;103285.78;;;2.61;47.92
77062;BME280;65989;51.686;5.138;2023-02-28T10:44:45;103292.22;;;2.67;48.41
77062;BME280;65989;51.686;5.138;2023-02-28T10:47:16;103291.16;;;2.69;48.19
77062;BME280;65989;51.686;5.138;2023-02-28T10:49:47;103283.69;;;2.75;48.02
77062;BME280;65989;51.686;5.138;2023-02-28T10:52:38;103292.25;;;2.77;47.94
77062;BME280;65989;51.686;5.138;2023-02-28T10:55:22;103289.75;;;2.75;47.20
77062;BME280;65989;51.686;5.138;2023-02-28T10:57:49;103287.13;;;2.75;47.74
77062;BME280;65989;51.686;5.138;2023-02-28T11:00:23;103277.22;;;2.79;47.34
77062;BME280;65989;51.686;5.138;2023-02-28T11:02:51;103275.56;;;2.78;47.23
77062;BME280;65989;51.686;5.138;2023-02-28T11:05:29;103273.22;;;2.84;48.28
77062;BME280;65989;51.686;5.138;2023-02-28T11:07:59;103266.72;;;2.89;47.53
77062;BME280;65989;51.686;5.138;2023-02-28T11:10:30;103272.38;;;2.94;47.40
77062;BME280;65989;51.686;5.138;2023-02-28T11:13:00;103267.25;;;2.92;47.71
77062;BME280;65989;51.686;5.138;2023-02-28T11:15:31;103263.91;;;3.00;46.70
77062;BME280;65989;51.686;5.138;2023-02-28T11:17:58;103264.47;;;3.04;47.30
77062;BME280;65989;51.686;5.138;2023-02-28T11:20:28;103257.56;;;3.12;47.87
77062;BME280;65989;51.686;5.138;2023-02-28T11:22:56;103256.44;;;3.15;46.87
77062;BME280;65989;51.686;5.138;2023-02-28T11:25:37;103258.88;;;3.26;47.23
77062;BME280;65989;51.686;5.138;2023-02-28T11:28:32;103251.19;;;3.15;47.37
77062;BME280;65989;51.686;5.138;2023-02-28T11:31:04;103255.47;;;3.16;47.57
77062;BME280;65989;51.686;5.138;2023-02-28T11:33:32;103264.97;;;3.27;46.85
77062;BME280;65989;51.686;5.138;2023-02-28T11:36:14;103252.22;;;3.32;47.19
77062;BME280;65989;51.686;5.138;2023-02-28T11:38:40;103261.75;;;3.33;46.79
77062;BME280;65989;51.686;5.138;2023-02-28T11:43:59;103250.84;;;3.38;46.59
77062;BME280;65989;51.686;5.138;2023-02-28T11:46:37;103248.34;;;3.36;47.02
77062;BME280;65989;51.686;5.138;2023-02-28T11:51:59;103235.06;;;3.48;45.92
77062;BME280;65989;51.686;5.138;2023-02-28T11:54:48;103243.63;;;3.50;45.50
77062;BME280;65989;51.686;5.138;2023-02-28T11:59:58;103241.44;;;3.45;44.79
77062;BME280;65989;51.686;5.138;2023-02-28T12:02:52;103241.97;;;3.49;45.76
77062;BME280;65989;51.686;5.138;2023-02-28T12:05:30;103241.50;;;3.53;45.05
77062;BME280;65989;51.686;5.138;2023-02-28T12:13:26;103220.53;;;3.53;43.53
77062;BME280;65989;51.686;5.138;2023-02-28T12:21:46;103225.75;;;3.63;43.48
77062;BME280;65989;51.686;5.138;2023-02-28T12:27:00;103222.59;;;3.59;43.46
77062;BME280;65989;51.686;5.138;2023-02-28T12:29:32;103214.41;;;3.63;44.29
77062;BME280;65989;51.686;5.138;2023-02-28T12:34:49;103201.41;;;3.71;42.94
77062;BME280;65989;51.686;5.138;2023-02-28T12:37:31;103210.63;;;3.75;44.29
77062;BME280;65989;51.686;5.138;2023-02-28T12:40:06;103206.19;;;3.76;43.60
77062;BME280;65989;51.686;5.138;2023-02-28T12:43:00;103204.13;;;3.79;43.97
77062;BME280;65989;51.686;5.138;2023-02-28T12:45:42;103206.13;;;3.85;43.41
77062;BME280;65989;51.686;5.138;2023-02-28T12:48:14;103201.94;;;3.93;42.64
77062;BME280;65989;51.686;5.138;2023-02-28T12:50:41;103214.91;;;3.94;42.97
77062;BME280;65989;51.686;5.138;2023-02-28T12:53:31;103204.72;;;3.91;43.68
77062;BME280;65989;51.686;5.138;2023-02-28T12:58:45;103195.03;;;3.92;42.85
77062;BME280;65989;51.686;5.138;2023-02-28T13:01:35;103187.91;;;3.84;43.95
77062;BME280;65989;51.686;5.138;2023-02-28T13:09:32;103174.88;;;3.92;43.27
77062;BME280;65989;51.686;5.138;2023-02-28T13:11:57;103173.25;;;3.91;43.65
77062;BME280;65989;51.686;5.138;2023-02-28T13:19:25;103164.69;;;3.89;44.19
77062;BME280;65989;51.686;5.138;2023-02-28T13:21:52;103158.31;;;3.92;44.20
77062;BME280;65989;51.686;5.138;2023-02-28T13:24:40;103160.16;;;3.99;44.12
77062;BME280;65989;51.686;5.138;2023-02-28T13:29:36;103152.25;;;4.09;43.25
77062;BME280;65989;51.686;5.138;2023-02-28T13:34:41;103153.59;;;4.13;43.98
77062;BME280;65989;51.686;5.138;2023-02-28T13:39:47;103157.53;;;4.17;42.80
77062;BME280;65989;51.686;5.138;2023-02-28T13:42:49;103156.25;;;4.22;43.42
77062;BME280;65989;51.686;5.138;2023-02-28T13:45:23;103161.97;;;4.17;42.54
77062;BME280;65989;51.686;5.138;2023-02-28T13:47:59;103137.84;;;4.13;42.72
77062;BME280;65989;51.686;5.138;2023-02-28T14:01:30;103139.84;;;4.19;43.51
77062;BME280;65989;51.686;5.138;2023-02-28T14:06:48;103135.44;;;4.20;43.12
77062;BME280;65989;51.686;5.138;2023-02-28T14:09:29;103142.16;;;4.23;42.80
77062;BME280;65989;51.686;5.138;2023-02-28T14:11:56;103132.13;;;4.18;42.60
77062;BME280;65989;51.686;5.138;2023-02-28T14:17:00;103142.31;;;4.21;42.95
77062;BME280;65989;51.686;5.138;2023-02-28T14:19:30;103134.06;;;4.16;43.37
77062;BME280;65989;51.686;5.138;2023-02-28T14:22:06;103129.50;;;4.18;43.63
77062;BME280;65989;51.686;5.138;2023-02-28T14:30:15;103135.31;;;4.30;44.03
77062;BME280;65989;51.686;5.138;2023-02-28T14:33:12;103135.31;;;4.30;44.14
77062;BME280;65989;51.686;5.138;2023-02-28T14:38:25;103130.00;;;4.22;44.20
77062;BME280;65989;51.686;5.138;2023-02-28T14:40:55;103126.56;;;4.21;44.32
77062;BME280;65989;51.686;5.138;2023-02-28T14:43:24;103127.63;;;4.28;44.01
77062;BME280;65989;51.686;5.138;2023-02-28T14:45:52;103122.38;;;4.28;43.96
77062;BME280;65989;51.686;5.138;2023-02-28T14:48:19;103123.84;;;4.31;43.73
77062;BME280;65989;51.686;5.138;2023-02-28T14:50:51;103118.75;;;4.29;43.58
77062;BME280;65989;51.686;5.138;2023-02-28T14:53:22;103124.66;;;4.31;43.33
77062;BME280;65989;51.686;5.138;2023-02-28T14:55:48;103120.72;;;4.27;43.69
77062;BME280;65989;51.686;5.138;2023-02-28T14:58:27;103122.38;;;4.28;44.04
77062;BME280;65989;51.686;5.138;2023-02-28T15:00:55;103123.84;;;4.31;43.33